Time;durP1;ratioP1;P1;durP2;ratioP2;P2;SDS_P1;SDS_P2;PMS_P1;PMS_P2;Temp;Humidity;BMP_temperature;BMP_pressure;BME280_temperature;BME280_humidity;BME280_pressure;Samples;Min_cycle;Max_cycle;Signal;HPM_P1;HPM_P2
2023/10/17 00:00:38;;;;;;;;;;;;;;;7.49;100.00;102038.88;5035135;28;1075;-78
2023/10/17 00:03:04;;;;;;;;;;;;;;;7.49;99.98;102038.03;5031722;28;1228;-78
2023/10/17 00:05:29;;;;;;;;;;;;;;;7.49;100.00;102035.47;5038272;28;1328;-79
2023/10/17 00:07:58;;;;;;;;;;;;;;;7.49;100.00;102038.88;5032675;28;1951;-78
2023/10/17 00:10:23;;;;;;;;;;;;;;;7.50;99.77;102026.81;5027197;28;1216;-78
2023/10/17 00:12:52;;;;;;;;;;;;;;;7.49;99.86;102023.38;5024752;28;1208;-78
2023/10/17 00:15:27;;;;;;;;;;;;;;;7.49;99.83;102023.38;5029252;28;1268;-78
2023/10/17 00:17:54;;;;;;;;;;;;;;;7.49;99.77;102022.56;5029124;28;1447;-79
2023/10/17 00:20:24;;;;;;;;;;;;;;;7.48;99.58;102033.81;5027544;28;1291;-78
2023/10/17 00:22:51;;;;;;;;;;;;;;;7.47;99.69;102029.56;5028336;28;1188;-78
2023/10/17 00:25:17;;;;;;;;;;;;;;;7.44;100.00;102026.19;5042447;28;1132;-78
2023/10/17 00:27:43;;;;;;;;;;;;;;;7.42;99.96;102022.88;5044710;28;1095;-80
2023/10/17 00:30:16;;;;;;;;;;;;;;;7.42;100.00;102020.28;5048433;28;1891;-79
2023/10/17 00:32:42;;;;;;;;;;;;;;;7.41;99.65;102013.44;5045053;28;1500;-79
2023/10/17 00:35:18;;;;;;;;;;;;;;;7.39;99.43;102023.00;5047087;28;1453;-78
2023/10/17 00:37:59;;;;;;;;;;;;;;;7.42;99.88;102019.44;5056566;28;1239;-78
2023/10/17 00:40:34;;;;;;;;;;;;;;;7.42;99.68;102022.88;5047829;28;1204;-78
2023/10/17 00:43:00;;;;;;;;;;;;;;;7.40;99.83;102014.38;5023606;28;1254;-78
2023/10/17 00:45:25;;;;;;;;;;;;;;;7.39;99.82;102002.34;5030761;28;1561;-78
2023/10/17 00:47:50;;;;;;;;;;;;;;;7.38;99.74;102005.84;5023824;28;1902;-78
2023/10/17 00:50:16;;;;;;;;;;;;;;;7.36;99.14;102002.50;5031538;28;1183;-78
2023/10/17 00:52:42;;;;;;;;;;;;;;;7.35;99.49;101995.69;5025992;28;1208;-79
2023/10/17 00:55:11;;;;;;;;;;;;;;;7.34;99.06;101999.19;5024470;28;1259;-78
2023/10/17 00:57:37;;;;;;;;;;;;;;;7.32;99.02;101985.50;5031113;28;1253;-78
2023/10/17 01:00:16;;;;;;;;;;;;;;;7.32;99.67;101988.09;5037777;28;1228;-79
2023/10/17 01:02:44;;;;;;;;;;;;;;;7.30;99.47;101983.91;5030989;28;1353;-78
2023/10/17 01:05:11;;;;;;;;;;;;;;;7.29;99.77;101980.50;5035529;28;1275;-79
2023/10/17 01:07:39;;;;;;;;;;;;;;;7.29;99.30;101988.25;5028125;28;1221;-78
2023/10/17 01:10:16;;;;;;;;;;;;;;;7.30;99.48;101989.91;5024769;28;1979;-78
2023/10/17 01:12:56;;;;;;;;;;;;;;;7.31;98.98;101983.84;5026878;28;1244;-78
2023/10/17 01:15:22;;;;;;;;;;;;;;;7.30;99.49;101984.75;5050015;28;1288;-78
2023/10/17 01:17:48;;;;;;;;;;;;;;;7.30;99.12;101982.19;5037455;28;1275;-78
2023/10/17 01:20:18;;;;;;;;;;;;;;;7.30;99.16;101982.19;5027674;28;1287;-78
2023/10/17 01:22:44;;;;;;;;;;;;;;;7.30;99.15;101996.81;5029437;28;1188;-78
2023/10/17 01:25:23;;;;;;;;;;;;;;;7.30;99.08;101987.34;5033059;28;1267;-78
2023/10/17 01:27:49;;;;;;;;;;;;;;;7.30;99.48;101997.66;5024657;28;1963;-78
2023/10/17 01:30:16;;;;;;;;;;;;;;;7.29;98.77;101996.00;5028356;28;1216;-78
2023/10/17 01:32:41;;;;;;;;;;;;;;;7.28;98.92;102004.63;5030497;28;1290;-78
2023/10/17 01:35:07;;;;;;;;;;;;;;;7.25;99.25;101999.63;5022041;28;1571;-78
2023/10/17 01:37:32;;;;;;;;;;;;;;;7.24;98.76;102003.13;5027462;28;1318;-78
2023/10/17 01:39:58;;;;;;;;;;;;;;;7.24;99.32;101997.97;5029119;28;1038;-78
2023/10/17 01:42:23;;;;;;;;;;;;;;;7.23;99.21;101996.28;5022437;28;1229;-78
2023/10/17 01:44:50;;;;;;;;;;;;;;;7.19;98.91;101994.78;5015187;28;1577;-78
2023/10/17 01:47:18;;;;;;;;;;;;;;;7.18;99.42;101988.78;5021912;28;1180;-78
2023/10/17 01:49:43;;;;;;;;;;;;;;;7.17;99.31;101981.13;5029353;28;1986;-78
2023/10/17 01:52:08;;;;;;;;;;;;;;;7.15;99.08;101973.44;5031158;28;1340;-78
2023/10/17 01:54:36;;;;;;;;;;;;;;;7.13;99.49;101969.25;5029583;28;1217;-78
2023/10/17 01:57:06;;;;;;;;;;;;;;;7.12;99.81;101968.44;5030271;28;1299;-78
2023/10/17 01:59:34;;;;;;;;;;;;;;;7.12;99.72;101967.59;5036835;28;1167;-78
2023/10/17 02:01:59;;;;;;;;;;;;;;;7.11;99.17;101968.50;5022341;28;1289;-78
2023/10/17 02:04:25;;;;;;;;;;;;;;;7.11;99.67;101960.75;5026697;28;1375;-79
2023/10/17 02:06:50;;;;;;;;;;;;;;;7.08;99.65;101960.91;5030326;28;1329;-78
2023/10/17 02:09:44;;;;;;;;;;;;;;;7.05;99.67;101961.03;5023346;28;1973;-78
2023/10/17 02:12:10;;;;;;;;;;;;;;;7.05;99.35;101953.31;5028839;28;1278;-80
2023/10/17 02:14:37;;;;;;;;;;;;;;;7.05;99.12;101950.72;5031599;28;1299;-78
2023/10/17 02:17:03;;;;;;;;;;;;;;;7.04;99.12;101944.75;5022835;28;1310;-78
2023/10/17 02:19:32;;;;;;;;;;;;;;;7.04;99.58;101943.91;5034669;28;1280;-78
2023/10/17 02:22:01;;;;;;;;;;;;;;;7.05;99.60;101940.41;5024132;28;1323;-78
2023/10/17 02:24:29;;;;;;;;;;;;;;;6.98;99.61;101939.88;5031459;28;1365;-79
2023/10/17 02:27:00;;;;;;;;;;;;;;;6.93;99.95;101942.69;5026381;28;1358;-79
2023/10/17 02:29:26;;;;;;;;;;;;;;;6.91;99.71;101943.66;5028763;28;1894;-78
2023/10/17 02:31:55;;;;;;;;;;;;;;;6.90;99.69;101947.16;5023963;28;1333;-78
2023/10/17 02:34:29;;;;;;;;;;;;;;;6.87;100.00;101945.56;5020979;28;1136;-78
2023/10/17 02:36:55;;;;;;;;;;;;;;;6.87;99.67;101945.56;5026601;28;1204;-78
2023/10/17 02:39:23;;;;;;;;;;;;;;;6.88;99.94;101944.66;5025001;28;1285;-78
2023/10/17 02:41:58;;;;;;;;;;;;;;;6.89;100.00;101941.19;5021600;28;1239;-78
2023/10/17 02:44:23;;;;;;;;;;;;;;;6.90;100.00;101937.69;5026938;28;1228;-78
2023/10/17 02:46:48;;;;;;;;;;;;;;;6.89;100.00;101946.34;5026079;28;1245;-78
2023/10/17 02:49:16;;;;;;;;;;;;;;;6.87;100.00;101944.72;5022473;28;1955;-78
2023/10/17 02:51:45;;;;;;;;;;;;;;;6.85;100.00;101934.50;5032236;28;1530;-78
2023/10/17 02:54:14;;;;;;;;;;;;;;;6.83;100.00;101953.53;5019182;28;1281;-78
2023/10/17 02:56:46;;;;;;;;;;;;;;;6.81;100.00;101948.44;5025203;28;1204;-78
2023/10/17 02:59:17;;;;;;;;;;;;;;;6.83;100.00;101953.53;5023475;28;1275;-78
2023/10/17 03:01:52;;;;;;;;;;;;;;;6.82;100.00;101954.41;5020248;28;1385;-79
2023/10/17 03:04:23;;;;;;;;;;;;;;;6.83;100.00;101958.69;5027329;28;1371;-78
2023/10/17 03:06:48;;;;;;;;;;;;;;;6.82;100.00;101950.09;5030760;28;1243;-78
2023/10/17 03:14:39;;;;;;;;;;;;;;;6.75;100.00;101948.72;5031744;28;1162;-78
2023/10/17 03:17:05;;;;;;;;;;;;;;;6.76;100.00;101949.56;5034977;28;1208;-78
2023/10/17 03:19:32;;;;;;;;;;;;;;;6.73;100.00;101940.22;5031786;28;1313;-78
2023/10/17 03:21:58;;;;;;;;;;;;;;;6.72;100.00;101943.72;5027753;28;1191;-78
2023/10/17 03:24:38;;;;;;;;;;;;;;;6.71;100.00;101942.06;5034154;28;1391;-78
2023/10/17 03:27:07;;;;;;;;;;;;;;;6.71;100.00;101939.47;5035410;28;1315;-78
2023/10/17 03:29:34;;;;;;;;;;;;;;;6.68;100.00;101931.88;5028924;28;1906;-77
2023/10/17 03:32:11;;;;;;;;;;;;;;;6.66;100.00;101936.28;5040418;28;1413;-78
2023/10/17 03:34:37;;;;;;;;;;;;;;;6.66;100.00;101938.88;5025801;28;1299;-78
2023/10/17 03:39:53;;;;;;;;;;;;;;;6.62;100.00;101934.75;5035465;28;1204;-79
2023/10/17 03:45:13;;;;;;;;;;;;;;;6.62;100.00;101937.31;5026697;28;1193;-78
2023/10/17 03:47:44;;;;;;;;;;;;;;;6.62;100.00;101939.91;5025739;28;1211;-78
2023/10/17 03:50:09;;;;;;;;;;;;;;;6.65;100.00;101942.31;5027897;28;1894;-78
2023/10/17 03:52:37;;;;;;;;;;;;;;;6.64;100.00;101945.81;5028815;28;1153;-79
2023/10/17 03:55:02;;;;;;;;;;;;;;;6.64;100.00;101946.66;5028180;28;1226;-79
2023/10/17 03:57:28;;;;;;;;;;;;;;;6.62;100.00;101942.47;5027862;28;1306;-78
2023/10/17 03:59:56;;;;;;;;;;;;;;;6.61;100.00;101945.97;5027534;28;1244;-78
2023/10/17 04:02:24;;;;;;;;;;;;;;;6.61;100.00;101940.81;5033165;28;1291;-78
2023/10/17 04:04:53;;;;;;;;;;;;;;;6.60;100.00;101952.03;5030028;28;1204;-78
2023/10/17 04:07:21;;;;;;;;;;;;;;;6.60;100.00;101941.72;5034099;28;1283;-78
2023/10/17 04:09:54;;;;;;;;;;;;;;;6.58;100.00;101946.94;5025170;28;1965;-78
2023/10/17 04:15:09;;;;;;;;;;;;;;;6.54;100.00;101947.19;5037135;28;1204;-78
2023/10/17 04:17:36;;;;;;;;;;;;;;;6.55;100.00;101947.09;5039287;28;1135;-78
2023/10/17 04:20:16;;;;;;;;;;;;;;;6.56;100.00;101947.94;5031558;28;1230;-78
2023/10/17 04:22:44;;;;;;;;;;;;;;;6.58;100.00;101946.09;5033266;28;1259;-78
2023/10/17 04:28:07;;;;;;;;;;;;;;;6.60;100.00;101954.63;5024545;28;1925;-78
2023/10/17 04:30:35;;;;;;;;;;;;;;;6.61;100.00;101953.72;5030626;28;1233;-78
2023/10/17 04:33:12;;;;;;;;;;;;;;;6.62;100.00;101968.25;5029802;28;1486;-78
2023/10/17 04:35:59;;;;;;;;;;;;;;;6.62;100.00;101965.69;5025213;28;1258;-77
2023/10/17 04:38:27;;;;;;;;;;;;;;;6.64;100.00;101966.44;5030969;28;1624;-77
2023/10/17 04:43:45;;;;;;;;;;;;;;;6.64;100.00;101956.13;5028361;28;1663;-77
2023/10/17 04:46:11;;;;;;;;;;;;;;;6.64;100.00;101956.13;5028361;28;1028;-78
2023/10/17 04:48:40;;;;;;;;;;;;;;;6.64;100.00;101956.13;5042986;28;1898;-78
2023/10/17 04:53:48;;;;;;;;;;;;;;;6.67;100.00;101943.09;5024271;28;1223;-78
2023/10/17 04:56:16;;;;;;;;;;;;;;;6.68;100.00;101949.94;5027450;28;1207;-78
2023/10/17 05:03:59;;;;;;;;;;;;;;;6.66;100.00;101949.19;5019005;28;1196;-78
2023/10/17 05:06:51;;;;;;;;;;;;;;;6.66;100.00;101951.75;5021836;28;1279;-78
2023/10/17 06:16:49;;;;;;;;;;;;;;;6.65;100.00;101947.47;5024143;28;1918;-78
2023/10/17 06:17:42;;;;;;;;;;;;;;;6.38;100.00;101929.84;5021579;28;1236;-79
2023/10/17 06:20:12;;;;;;;;;;;;;;;6.39;100.00;101946.97;5035317;28;1541;-78
2023/10/17 06:23:23;;;;;;;;;;;;;;;6.40;100.00;101942.66;5020085;28;977;-78
2023/10/17 06:31:10;;;;;;;;;;;;;;;6.41;100.00;101943.47;5023503;28;1005;-78
2023/10/17 06:33:35;;;;;;;;;;;;;;;6.37;100.00;101943.63;5024402;28;1146;-78
2023/10/17 06:36:13;;;;;;;;;;;;;;;6.37;100.00;101943.63;5020276;28;1305;-78
2023/10/17 06:38:46;;;;;;;;;;;;;;;6.37;100.00;101943.63;5030591;28;1233;-78
2023/10/17 06:41:14;;;;;;;;;;;;;;;6.37;100.00;101943.63;5022993;28;1074;-78
2023/10/17 06:43:40;;;;;;;;;;;;;;;6.37;100.00;101953.94;5027130;28;1317;-78
2023/10/17 06:46:12;;;;;;;;;;;;;;;6.37;100.00;101948.78;5022808;28;1185;-78
2023/10/17 06:48:37;;;;;;;;;;;;;;;6.35;100.00;101945.44;5018658;28;1906;-79
2023/10/17 06:53:40;;;;;;;;;;;;;;;6.31;100.00;101949.06;5029874;28;1207;-78
2023/10/17 06:56:09;;;;;;;;;;;;;;;6.31;100.00;101943.91;5030985;28;1078;-78
2023/10/17 06:58:35;;;;;;;;;;;;;;;6.26;100.00;101951.03;5034016;28;1102;-78
2023/10/17 07:01:04;;;;;;;;;;;;;;;6.24;100.00;101947.66;5032774;28;1559;-78
2023/10/17 07:03:34;;;;;;;;;;;;;;;6.22;100.00;101949.47;5028296;28;1242;-78
2023/10/17 07:06:10;;;;;;;;;;;;;;;6.23;100.00;101948.56;5028415;28;1149;-78
2023/10/17 07:08:36;;;;;;;;;;;;;;;6.21;100.00;101947.81;5031197;28;1955;-77
2023/10/17 07:11:20;;;;;;;;;;;;;;;6.21;100.00;101958.13;5034027;28;1294;-78
2023/10/17 07:16:33;;;;;;;;;;;;;;;6.19;100.00;101970.22;5031828;28;1362;-78
2023/10/17 07:24:36;;;;;;;;;;;;;;;6.18;100.00;101968.53;5031680;28;1065;-78
2023/10/17 07:27:11;;;;;;;;;;;;;;;6.18;100.00;101963.38;5021301;28;1673;-78
2023/10/17 07:29:36;;;;;;;;;;;;;;;6.22;100.00;101958.94;5020792;28;1961;-78
2023/10/17 07:32:09;;;;;;;;;;;;;;;6.21;100.00;101960.69;5020208;28;1211;-78
2023/10/17 07:34:34;;;;;;;;;;;;;;;6.22;100.00;101954.63;5018812;28;1114;-79
2023/10/17 07:39:59;;;;;;;;;;;;;;;6.22;100.00;101954.63;5022807;28;894;-78
2023/10/17 07:42:30;;;;;;;;;;;;;;;6.26;100.00;101955.34;5024116;28;1338;-78
2023/10/17 07:44:57;;;;;;;;;;;;;;;6.30;100.00;101952.53;5024055;28;1834;-78
2023/10/17 07:47:33;;;;;;;;;;;;;;;6.36;100.00;101952.25;5030099;28;1113;-78
2023/10/17 07:49:59;;;;;;;;;;;;;;;6.36;100.00;101952.25;5032408;28;1969;-78
2023/10/17 07:52:25;;;;;;;;;;;;;;;6.43;100.00;101952.81;5033690;28;1000;-78
2023/10/17 07:54:57;;;;;;;;;;;;;;;6.49;100.00;101954.28;5023608;28;1033;-78
2023/10/17 07:57:26;;;;;;;;;;;;;;;6.54;100.00;101944.59;5026151;28;1259;-78
2023/10/17 07:59:57;;;;;;;;;;;;;;;6.60;100.00;101944.31;5033939;28;1592;-78
2023/10/17 08:02:23;;;;;;;;;;;;;;;6.65;100.00;101948.34;5031698;28;1469;-78
2023/10/17 08:04:50;;;;;;;;;;;;;;;6.71;100.00;101947.22;5044062;28;1284;-78
2023/10/17 08:07:15;;;;;;;;;;;;;;;6.71;100.00;101939.47;5031681;28;1015;-78
2023/10/17 08:09:50;;;;;;;;;;;;;;;6.77;100.00;101940.94;5024534;28;1955;-78
2023/10/17 08:12:16;;;;;;;;;;;;;;;6.79;100.00;101939.94;5028254;28;1223;-79
2023/10/17 08:14:41;;;;;;;;;;;;;;;6.85;100.00;101938.81;5023636;28;1059;-78
2023/10/17 08:17:09;;;;;;;;;;;;;;;6.91;100.00;101934.19;5022140;28;1543;-78
2023/10/17 08:22:18;;;;;;;;;;;;;;;7.05;100.00;101938.66;5026810;28;1072;-78
2023/10/17 08:24:46;;;;;;;;;;;;;;;7.11;100.00;101934.94;5020153;28;1240;-78
2023/10/17 08:27:41;;;;;;;;;;;;;;;7.16;100.00;101940.72;5021243;28;1187;-78
2023/10/17 08:30:14;;;;;;;;;;;;;;;7.27;100.00;101935.03;5025682;28;1947;-78
2023/10/17 08:32:39;;;;;;;;;;;;;;;7.34;100.00;101932.09;5029316;28;1192;-78
2023/10/17 08:35:17;;;;;;;;;;;;;;;7.38;100.00;101928.41;5024768;28;1389;-78
2023/10/17 08:37:45;;;;;;;;;;;;;;;7.48;100.00;101933.13;5018491;28;1109;-78
2023/10/17 08:40:29;;;;;;;;;;;;;;;7.54;100.00;101933.66;5027520;28;1227;-78
2023/10/17 08:42:56;;;;;;;;;;;;;;;7.62;100.00;101925.50;5020798;28;1155;-78
2023/10/17 08:45:24;;;;;;;;;;;;;;;7.69;100.00;101929.44;5025716;28;1025;-79
2023/10/17 08:47:50;;;;;;;;;;;;;;;7.77;100.00;101934.22;5023575;28;1158;-78
2023/10/17 08:50:15;;;;;;;;;;;;;;;7.84;100.00;101936.38;5025346;28;1902;-78
2023/10/17 08:52:43;;;;;;;;;;;;;;;7.92;100.00;101929.09;5026481;28;1361;-78
2023/10/17 08:55:09;;;;;;;;;;;;;;;7.97;100.00;101927.09;5024416;28;1460;-78
2023/10/17 08:57:37;;;;;;;;;;;;;;;8.04;100.00;101919.00;5032325;28;1214;-78
2023/10/17 09:02:32;;;;;;;;;;;;;;;8.22;100.00;101928.34;5029744;28;968;-78
2023/10/17 09:05:01;;;;;;;;;;;;;;;8.24;100.00;101929.09;5031196;28;1488;-78
2023/10/17 09:07:41;;;;;;;;;;;;;;;8.27;100.00;101928.94;5028585;28;1263;-78
2023/10/17 09:10:39;;;;;;;;;;;;;;;8.28;100.00;101940.94;5029669;28;1975;-78
2023/10/17 09:15:59;;;;;;;;;;;;;;;8.41;100.00;101947.16;5017733;28;1670;-78
2023/10/17 09:18:28;;;;;;;;;;;;;;;8.45;100.00;101943.47;5032103;28;1259;-79
2023/10/17 09:20:55;;;;;;;;;;;;;;;8.61;100.00;101937.47;5025895;28;1119;-78
2023/10/17 09:23:21;;;;;;;;;;;;;;;8.62;100.00;101944.31;5027487;28;1256;-78
2023/10/17 09:25:51;;;;;;;;;;;;;;;8.68;100.00;101951.72;5028888;28;1204;-78
2023/10/17 09:28:19;;;;;;;;;;;;;;;8.70;100.00;101952.47;5030362;28;1886;-78
2023/10/17 09:30:55;;;;;;;;;;;;;;;8.80;100.00;101957.97;5031669;28;1134;-78
2023/10/17 09:33:27;;;;;;;;;;;;;;;8.84;99.52;101955.13;5017732;28;1102;-78
2023/10/17 09:35:55;;;;;;;;;;;;;;;8.95;98.94;101962.28;5022083;28;1087;-78
2023/10/17 09:38:21;;;;;;;;;;;;;;;8.91;98.23;101961.63;5020725;28;1276;-79
2023/10/17 09:40:49;;;;;;;;;;;;;;;8.97;97.76;101957.84;5027396;28;1134;-78
2023/10/17 09:43:14;;;;;;;;;;;;;;;9.02;97.79;101954.09;5019621;28;1232;-78
2023/10/17 09:45:41;;;;;;;;;;;;;;;9.15;97.73;101958.56;5019874;28;1003;-79
2023/10/17 09:48:07;;;;;;;;;;;;;;;9.13;98.12;101961.25;5015138;28;1020;-79
2023/10/17 09:50:36;;;;;;;;;;;;;;;9.20;97.79;101959.13;5019798;28;1957;-78
2023/10/17 09:53:07;;;;;;;;;;;;;;;9.23;97.24;101961.53;5025328;28;1165;-78
2023/10/17 09:55:33;;;;;;;;;;;;;;;9.26;95.06;101961.34;5029078;28;1160;-78
2023/10/17 09:58:03;;;;;;;;;;;;;;;9.29;96.06;101958.59;5035485;28;1093;-78
2023/10/17 10:00:47;;;;;;;;;;;;;;;9.36;95.65;101966.84;5032612;28;1310;-78
2023/10/17 10:03:12;;;;;;;;;;;;;;;9.41;95.54;101959.66;5028546;28;977;-78
2023/10/17 10:05:38;;;;;;;;;;;;;;;9.43;95.33;101957.78;5022243;28;1300;-79
2023/10/17 10:08:24;;;;;;;;;;;;;;;9.49;94.74;101958.25;5028663;28;1256;-79
2023/10/17 10:10:51;;;;;;;;;;;;;;;9.55;94.93;101944.13;5037171;28;1071;-79
2023/10/17 10:13:17;;;;;;;;;;;;;;;9.58;93.87;101957.72;5026551;28;1096;-79
2023/10/17 10:16:12;;;;;;;;;;;;;;;9.68;94.24;101957.16;5030012;28;1339;-78
2023/10/17 10:18:38;;;;;;;;;;;;;;;9.81;93.64;101950.34;5013606;28;1448;-79
2023/10/17 10:21:03;;;;;;;;;;;;;;;9.85;94.11;101949.22;5034236;28;1339;-79
2023/10/17 10:23:32;;;;;;;;;;;;;;;9.90;92.76;101957.53;5032489;28;1301;-78
2023/10/17 10:26:13;;;;;;;;;;;;;;;9.92;90.96;101947.06;5026215;28;1117;-79
2023/10/17 10:28:39;;;;;;;;;;;;;;;9.93;92.28;101941.81;5029311;28;1890;-79
2023/10/17 10:31:23;;;;;;;;;;;;;;;10.00;91.26;101937.09;5036057;28;1330;-78
2023/10/17 10:33:49;;;;;;;;;;;;;;;10.00;89.28;101931.91;5020345;28;1188;-78
2023/10/17 10:36:23;;;;;;;;;;;;;;;10.05;90.87;101930.69;5031119;28;1552;-79
2023/10/17 10:38:48;;;;;;;;;;;;;;;10.08;90.77;101930.50;5025152;28;1211;-79
2023/10/17 10:41:15;;;;;;;;;;;;;;;10.23;90.29;101933.06;5025982;28;1178;-79
2023/10/17 10:43:40;;;;;;;;;;;;;;;10.20;88.83;101922.88;5027177;28;1243;-79
2023/10/17 10:46:08;;;;;;;;;;;;;;;10.24;89.74;101916.63;5023280;28;1155;-79
2023/10/17 10:48:33;;;;;;;;;;;;;;;10.26;89.37;101914.75;5022006;28;1906;-79
2023/10/17 10:51:00;;;;;;;;;;;;;;;10.42;88.61;101918.03;5019916;28;1172;-79
2023/10/17 10:53:28;;;;;;;;;;;;;;;10.41;89.26;101903.41;5031695;28;1106;-79
2023/10/17 10:55:53;;;;;;;;;;;;;;;10.40;86.37;101893.97;5039596;28;1067;-79
2023/10/17 10:58:18;;;;;;;;;;;;;;;10.42;88.14;101897.28;5039463;28;1090;-78
2023/10/17 11:00:44;;;;;;;;;;;;;;;10.42;88.00;101897.28;5026182;28;1028;-79
2023/10/17 11:03:09;;;;;;;;;;;;;;;10.47;86.73;101900.44;5029489;28;1150;-78
2023/10/17 11:05:49;;;;;;;;;;;;;;;10.49;87.98;101898.56;5031300;28;1172;-79
2023/10/17 11:08:15;;;;;;;;;;;;;;;10.57;88.38;101891.13;5028102;28;1902;-78
2023/10/17 11:10:41;;;;;;;;;;;;;;;10.69;87.31;101873.09;5040633;28;1349;-78
2023/10/17 11:13:08;;;;;;;;;;;;;;;10.67;86.47;101869.75;5036905;28;1162;-78
2023/10/17 11:15:33;;;;;;;;;;;;;;;10.68;85.90;101869.69;5039464;28;1127;-77
2023/10/17 11:17:59;;;;;;;;;;;;;;;10.77;85.22;101876.03;5033807;28;1143;-79
2023/10/17 11:20:27;;;;;;;;;;;;;;;10.75;83.18;101877.91;5033993;28;1181;-79
2023/10/17 11:22:52;;;;;;;;;;;;;;;10.75;84.06;101873.53;5040951;28;999;-77
2023/10/17 11:25:27;;;;;;;;;;;;;;;10.81;83.77;101864.53;5040840;28;1094;-79
2023/10/17 11:27:54;;;;;;;;;;;;;;;10.81;84.99;101861.91;5049129;28;1129;-79
2023/10/17 11:30:21;;;;;;;;;;;;;;;10.86;84.52;101859.84;5050108;28;1950;-79
2023/10/17 11:32:47;;;;;;;;;;;;;;;10.94;84.00;101852.38;5058007;28;1170;-80
2023/10/17 11:35:29;;;;;;;;;;;;;;;10.98;84.27;101853.03;5054878;28;1178;-79
2023/10/17 11:37:55;;;;;;;;;;;;;;;10.98;83.03;101848.66;5063169;28;1037;-79
2023/10/17 11:40:44;;;;;;;;;;;;;;;11.02;83.75;101844.09;5052587;28;1253;-79
2023/10/17 11:43:20;;;;;;;;;;;;;;;11.02;82.13;101850.13;5025183;28;1202;-79
2023/10/17 11:45:46;;;;;;;;;;;;;;;11.05;80.79;101849.91;5038101;28;1458;-79
2023/10/17 11:48:27;;;;;;;;;;;;;;;11.06;82.33;101861.13;5027907;28;1314;-78
2023/10/17 11:51:17;;;;;;;;;;;;;;;11.16;81.21;101852.59;5028725;28;1003;-79
2023/10/17 11:54:04;;;;;;;;;;;;;;;11.14;80.45;101854.47;5023828;28;1123;-79
2023/10/17 11:56:37;;;;;;;;;;;;;;;11.16;81.13;101852.59;5023247;28;1355;-79
2023/10/17 11:59:03;;;;;;;;;;;;;;;11.23;81.02;101857.38;5021594;28;1046;-79
2023/10/17 12:01:28;;;;;;;;;;;;;;;11.27;81.84;101864.03;5025363;28;1098;-78
2023/10/17 12:03:56;;;;;;;;;;;;;;;11.30;79.97;101869.03;5025684;28;1142;-78
2023/10/17 12:06:26;;;;;;;;;;;;;;;11.36;79.73;101855.63;5023943;28;980;-79
2023/10/17 12:08:51;;;;;;;;;;;;;;;11.32;80.28;101852.41;5029561;28;1901;-78
2023/10/17 12:11:17;;;;;;;;;;;;;;;11.34;80.12;101854.88;5027972;28;1534;-79
2023/10/17 12:13:43;;;;;;;;;;;;;;;11.32;79.98;101855.00;5025962;28;1236;-78
2023/10/17 12:16:11;;;;;;;;;;;;;;;11.38;78.49;101866.75;5029516;28;1247;-78
2023/10/17 12:18:36;;;;;;;;;;;;;;;11.34;79.14;101854.88;5030566;28;1314;-79
2023/10/17 12:21:04;;;;;;;;;;;;;;;11.45;78.11;101847.19;5022089;28;1156;-78
2023/10/17 12:23:32;;;;;;;;;;;;;;;11.40;78.10;101833.69;5018102;28;1002;-78
2023/10/17 12:26:19;;;;;;;;;;;;;;;11.38;79.04;101826.00;5022571;28;1068;-79
2023/10/17 12:28:44;;;;;;;;;;;;;;;11.43;78.44;101815.31;5027182;28;1972;-78
2023/10/17 12:31:09;;;;;;;;;;;;;;;11.52;77.97;101806.84;5020919;28;1163;-78
2023/10/17 12:33:36;;;;;;;;;;;;;;;11.47;79.03;101797.72;5027243;28;1085;-78
2023/10/17 12:36:01;;;;;;;;;;;;;;;11.51;77.91;101794.81;5023260;28;1277;-79
2023/10/17 12:38:33;;;;;;;;;;;;;;;11.49;76.44;101786.31;5031462;28;1140;-78
2023/10/17 12:40:58;;;;;;;;;;;;;;;11.44;76.40;101783.19;5030089;28;1147;-79
2023/10/17 12:43:24;;;;;;;;;;;;;;;11.48;77.92;101782.03;5030647;28;1239;-78
2023/10/17 12:45:49;;;;;;;;;;;;;;;11.50;77.54;101774.97;5032606;28;1113;-79
2023/10/17 12:48:15;;;;;;;;;;;;;;;11.52;76.53;101765.28;5030065;28;1189;-79
2023/10/17 12:50:46;;;;;;;;;;;;;;;11.52;77.56;101757.50;5021676;28;1969;-79
2023/10/17 12:53:11;;;;;;;;;;;;;;;11.53;77.35;101748.78;5027036;28;1158;-78
2023/10/17 12:55:37;;;;;;;;;;;;;;;11.73;74.94;101756.91;5027509;28;1021;-78
2023/10/17 12:58:03;;;;;;;;;;;;;;;11.58;75.95;101733.66;5024204;28;1097;-79
2023/10/17 13:00:30;;;;;;;;;;;;;;;11.57;74.24;101733.78;5024511;28;1488;-78
2023/10/17 13:02:55;;;;;;;;;;;;;;;11.55;75.85;101728.72;5025677;28;1181;-80
2023/10/17 13:05:21;;;;;;;;;;;;;;;11.60;75.32;101729.22;5026637;28;1442;-78
2023/10/17 13:07:47;;;;;;;;;;;;;;;11.59;74.85;101727.56;5028450;28;1139;-78
2023/10/17 13:10:13;;;;;;;;;;;;;;;11.60;75.79;101731.81;5032157;28;1894;-78
2023/10/17 13:12:41;;;;;;;;;;;;;;;11.59;73.71;101719.75;5031563;28;1397;-78
2023/10/17 13:15:08;;;;;;;;;;;;;;;11.55;75.19;101738.28;5016899;28;1303;-78
2023/10/17 13:17:33;;;;;;;;;;;;;;;11.59;73.65;101740.56;5025790;28;1179;-79
2023/10/17 13:20:06;;;;;;;;;;;;;;;11.51;75.51;101732.44;5030991;28;980;-79
2023/10/17 13:22:36;;;;;;;;;;;;;;;11.55;74.90;101728.72;5015269;28;1004;-78
2023/10/17 13:25:02;;;;;;;;;;;;;;;11.50;73.83;101736.00;5024684;28;1237;-78
2023/10/17 13:27:27;;;;;;;;;;;;;;;11.42;74.83;101720.97;5031275;28;1408;-78
2023/10/17 13:29:52;;;;;;;;;;;;;;;11.43;75.22;101724.38;5027806;28;1885;-78
2023/10/17 13:32:17;;;;;;;;;;;;;;;11.44;75.88;101720.84;5027221;28;1077;-79
2023/10/17 13:34:43;;;;;;;;;;;;;;;11.40;74.77;101719.41;5030984;28;1252;-78
2023/10/17 13:37:09;;;;;;;;;;;;;;;11.41;75.04;101715.84;5033922;28;1380;-78
2023/10/17 13:39:36;;;;;;;;;;;;;;;11.35;74.67;101718.88;5028157;28;1184;-78
2023/10/17 13:42:04;;;;;;;;;;;;;;;11.35;74.87;101716.28;5035336;28;1163;-78
2023/10/17 13:44:30;;;;;;;;;;;;;;;11.28;75.79;101708.09;5032640;28;1160;-79
2023/10/17 13:46:56;;;;;;;;;;;;;;;11.31;75.57;101709.66;5031910;28;1216;-78
2023/10/17 13:49:22;;;;;;;;;;;;;;;11.28;75.36;101717.66;5022629;28;1965;-79
2023/10/17 13:51:47;;;;;;;;;;;;;;;11.27;74.51;101708.22;5028011;28;1120;-78
2023/10/17 13:54:13;;;;;;;;;;;;;;;11.22;74.89;101699.91;5027154;28;1310;-78
2023/10/17 13:56:39;;;;;;;;;;;;;;;11.17;72.44;101708.84;5028746;28;1283;-78
2023/10/17 13:59:04;;;;;;;;;;;;;;;11.11;73.81;101709.28;5024879;28;1156;-78
2023/10/17 14:01:32;;;;;;;;;;;;;;;11.09;73.87;101700.78;5020174;28;1518;-79
2023/10/17 14:04:03;;;;;;;;;;;;;;;11.08;74.90;101699.13;5029239;28;1239;-79
2023/10/17 14:06:38;;;;;;;;;;;;;;;11.09;74.75;101695.59;5030909;28;1370;-79
2023/10/17 14:09:03;;;;;;;;;;;;;;;11.23;73.83;101691.19;5025561;28;1944;-79
2023/10/17 14:11:28;;;;;;;;;;;;;;;11.13;75.50;101691.84;5023790;28;1257;-78
2023/10/17 14:13:54;;;;;;;;;;;;;;;11.19;74.22;101697.56;5024306;28;1061;-78
2023/10/17 14:16:22;;;;;;;;;;;;;;;11.13;74.33;101678.88;5023218;28;1243;-78
2023/10/17 14:18:52;;;;;;;;;;;;;;;11.15;75.07;101679.59;5024330;28;1112;-78
2023/10/17 14:21:34;;;;;;;;;;;;;;;11.14;75.82;101671.91;5020750;28;1079;-78
2023/10/17 14:24:04;;;;;;;;;;;;;;;11.24;75.62;101672.06;5020475;28;1181;-77
2023/10/17 14:26:29;;;;;;;;;;;;;;;11.16;75.68;101670.03;5029068;28;1184;-78
2023/10/17 14:28:56;;;;;;;;;;;;;;;11.12;75.28;101674.59;5030742;28;1967;-78
2023/10/17 14:31:23;;;;;;;;;;;;;;;11.13;76.67;101675.44;5025522;28;1290;-78
2023/10/17 14:33:49;;;;;;;;;;;;;;;11.24;75.62;101674.66;5031869;28;1079;-78
2023/10/17 14:36:14;;;;;;;;;;;;;;;11.18;75.50;101673.31;5029764;28;1212;-78
2023/10/17 14:38:39;;;;;;;;;;;;;;;11.14;75.26;101671.91;5026864;28;1718;-78
2023/10/17 14:41:08;;;;;;;;;;;;;;;11.09;74.35;101669.63;5042501;28;1127;-79
2023/10/17 14:43:37;;;;;;;;;;;;;;;11.07;75.76;101679.31;5052102;28;1089;-78
2023/10/17 14:46:02;;;;;;;;;;;;;;;11.05;75.27;101667.34;5036665;28;954;-78
2023/10/17 14:48:27;;;;;;;;;;;;;;;11.04;74.10;101676.91;5029020;28;1906;-78
2023/10/17 14:50:53;;;;;;;;;;;;;;;10.98;74.51;101666.94;5028317;28;1216;-77
2023/10/17 14:53:19;;;;;;;;;;;;;;;10.93;74.54;101663.84;5034234;28;1084;-78
2023/10/17 14:55:46;;;;;;;;;;;;;;;10.97;73.88;101654.91;5033976;28;1085;-78
2023/10/17 14:58:11;;;;;;;;;;;;;;;10.89;73.88;101652.00;5035107;28;1012;-79
2023/10/17 15:00:37;;;;;;;;;;;;;;;10.89;74.29;101657.19;5024655;28;1308;-78